Time;durP1;ratioP1;P1;durP2;ratioP2;P2;SDS_P1;SDS_P2;PMS_P1;PMS_P2;Temp;Humidity;BMP_temperature;BMP_pressure;BME280_temperature;BME280_humidity;BME280_pressure;Samples;Min_cycle;Max_cycle;Signal;HPM_P1;HPM_P2
2021/09/28 00:01:51;;;;;;;8.30;1.57;;;12.10;99.90;;;;;;5094398;28;20252;-81
2021/09/28 00:04:18;;;;;;;18.03;2.10;;;12.10;99.90;;;;;;5095765;28;20207;-82
2021/09/28 00:06:47;;;;;;;10.17;1.47;;;12.00;99.90;;;;;;5095408;28;20199;-84
2021/09/28 00:09:23;;;;;;;11.23;1.40;;;12.00;99.90;;;;;;5109730;28;20236;-80
2021/09/28 00:11:51;;;;;;;11.77;1.83;;;12.00;99.90;;;;;;5103146;28;20247;-77
2021/09/28 00:14:18;;;;;;;10.30;1.60;;;12.00;99.90;;;;;;5091970;28;20207;-81
2021/09/28 00:16:46;;;;;;;7.70;2.00;;;12.00;99.90;;;;;;5084528;28;20637;-80
2021/09/28 00:19:18;;;;;;;9.23;1.93;;;12.00;99.90;;;;;;5093739;28;20199;-81
2021/09/28 00:21:46;;;;;;;10.30;1.57;;;12.00;99.90;;;;;;5111337;28;20223;-79
2021/09/28 00:24:22;;;;;;;8.33;1.20;;;11.90;99.90;;;;;;5095789;28;20257;-81
2021/09/28 00:26:49;;;;;;;10.07;1.80;;;11.90;99.90;;;;;;5097752;28;20194;-78
2021/09/28 00:29:23;;;;;;;13.43;1.70;;;11.90;99.90;;;;;;5111494;28;20205;-80
2021/09/28 00:31:50;;;;;;;7.50;1.40;;;12.00;99.90;;;;;;5107904;28;20710;-82
2021/09/28 00:34:20;;;;;;;10.23;1.50;;;12.00;99.90;;;;;;5093500;28;20570;-81
2021/09/28 00:36:48;;;;;;;8.03;1.30;;;12.10;99.90;;;;;;5088792;28;20218;-80
2021/09/28 00:39:15;;;;;;;12.97;1.60;;;12.10;99.90;;;;;;5088691;28;20266;-84
2021/09/28 00:41:44;;;;;;;13.80;1.90;;;12.10;99.90;;;;;;5086666;28;20199;-82
2021/09/28 00:44:11;;;;;;;11.50;1.90;;;12.20;99.90;;;;;;5095750;28;20191;-81
2021/09/28 00:46:37;;;;;;;6.43;1.30;;;12.20;99.90;;;;;;5090287;28;20267;-81
2021/09/28 00:49:04;;;;;;;8.73;1.17;;;12.10;99.90;;;;;;5088413;28;20770;-80
2021/09/28 00:51:31;;;;;;;12.57;1.67;;;12.10;99.90;;;;;;5083491;28;20528;-82
2021/09/28 00:54:00;;;;;;;11.33;1.50;;;12.10;99.90;;;;;;5093743;28;20237;-81
2021/09/28 00:56:27;;;;;;;9.00;1.30;;;12.10;99.90;;;;;;5087053;28;20661;-82
2021/09/28 00:58:54;;;;;;;6.50;1.23;;;12.10;99.90;;;;;;5094421;28;20611;-81
2021/09/28 01:01:21;;;;;;;10.40;1.43;;;12.20;99.90;;;;;;5095038;28;20286;-81
2021/09/28 01:03:48;;;;;;;14.30;1.53;;;12.20;99.90;;;;;;5095801;28;20281;-81
2021/09/28 01:06:15;;;;;;;4.13;0.90;;;12.20;99.90;;;;;;5096527;28;20206;-82
2021/09/28 01:08:42;;;;;;;10.43;1.77;;;12.20;99.90;;;;;;5096140;28;20203;-82
2021/09/28 01:11:10;;;;;;;8.43;1.80;;;12.20;99.90;;;;;;5095927;28;20629;-84
2021/09/28 01:13:37;;;;;;;12.17;1.57;;;12.20;99.90;;;;;;5095400;28;20295;-80
2021/09/28 01:16:09;;;;;;;7.50;1.20;;;12.20;99.90;;;;;;5098074;28;20289;-82
2021/09/28 01:18:37;;;;;;;7.23;1.30;;;12.20;99.90;;;;;;5096543;28;20195;-81
2021/09/28 01:21:08;;;;;;;8.50;1.37;;;12.20;99.90;;;;;;5076063;28;20439;-84
2021/09/28 01:23:35;;;;;;;10.97;1.60;;;12.20;99.90;;;;;;5088283;28;20233;-82
2021/09/28 01:26:02;;;;;;;4.33;1.20;;;12.10;99.90;;;;;;5095716;28;20217;-82
2021/09/28 01:28:29;;;;;;;4.93;1.40;;;12.10;99.90;;;;;;5096549;28;20207;-84
2021/09/28 01:30:58;;;;;;;10.00;1.43;;;12.10;99.90;;;;;;5095351;28;20314;-83
2021/09/28 01:33:26;;;;;;;8.33;1.33;;;12.00;99.90;;;;;;5095354;28;20198;-80
2021/09/28 01:35:53;;;;;;;8.60;1.20;;;12.10;99.90;;;;;;5095424;28;20537;-81
2021/09/28 01:38:21;;;;;;;5.17;1.17;;;12.00;99.90;;;;;;5096162;28;20734;-83
2021/09/28 01:40:49;;;;;;;5.80;1.07;;;12.10;99.90;;;;;;5095296;28;20285;-81
2021/09/28 01:43:16;;;;;;;8.53;1.37;;;12.10;99.90;;;;;;5095685;28;20653;-81
2021/09/28 01:45:44;;;;;;;8.90;1.30;;;12.10;99.90;;;;;;5095371;28;20621;-82
2021/09/28 01:48:11;;;;;;;9.87;1.30;;;12.00;99.90;;;;;;5095922;28;20282;-81
2021/09/28 01:50:38;;;;;;;7.37;1.30;;;12.10;99.90;;;;;;5095381;28;20214;-82
2021/09/28 01:53:06;;;;;;;9.13;1.50;;;12.00;99.90;;;;;;5095483;28;20198;-82
2021/09/28 01:55:34;;;;;;;7.23;1.47;;;12.00;99.90;;;;;;5095134;28;20280;-81
2021/09/28 01:58:01;;;;;;;9.80;1.47;;;12.00;99.90;;;;;;5095275;28;20267;-82
2021/09/28 02:00:29;;;;;;;8.03;1.57;;;12.00;99.90;;;;;;5095214;28;20627;-85
2021/09/28 02:02:56;;;;;;;9.20;1.30;;;12.00;99.90;;;;;;5095175;28;20555;-81
2021/09/28 02:05:23;;;;;;;8.03;1.67;;;11.90;99.90;;;;;;5095250;28;20209;-79
2021/09/28 02:07:50;;;;;;;11.57;1.57;;;11.90;99.90;;;;;;5095673;28;20225;-86
2021/09/28 02:10:17;;;;;;;10.93;1.50;;;11.80;99.90;;;;;;5095367;28;20294;-80
2021/09/28 02:12:46;;;;;;;8.87;1.60;;;11.90;99.90;;;;;;5095367;28;20254;-82
2021/09/28 02:15:13;;;;;;;7.40;1.67;;;11.90;99.90;;;;;;5096025;28;20245;-81
2021/09/28 02:17:40;;;;;;;9.97;1.60;;;11.90;99.90;;;;;;5095088;28;20539;-81
2021/09/28 02:20:08;;;;;;;7.17;1.47;;;11.80;99.90;;;;;;5080794;28;20341;-81
2021/09/28 02:22:35;;;;;;;5.60;1.30;;;11.80;99.90;;;;;;5095352;28;20298;-83
2021/09/28 02:25:02;;;;;;;5.03;1.30;;;11.80;99.90;;;;;;5095029;28;20286;-80
2021/09/28 02:27:29;;;;;;;6.23;1.40;;;11.80;99.90;;;;;;5094739;28;20288;-79
2021/09/28 02:29:58;;;;;;;11.57;2.30;;;11.80;99.90;;;;;;5094793;28;20661;-83
2021/09/28 02:32:25;;;;;;;11.80;1.60;;;11.70;99.90;;;;;;5094270;28;20226;-82
2021/09/28 02:34:52;;;;;;;7.10;1.60;;;11.70;99.90;;;;;;5094610;28;20207;-78
2021/09/28 02:37:19;;;;;;;6.20;1.90;;;11.70;99.90;;;;;;5094523;28;20215;-83
2021/09/28 02:39:46;;;;;;;7.33;1.37;;;11.80;99.90;;;;;;5094148;28;20297;-80
2021/09/28 02:42:13;;;;;;;4.80;1.50;;;11.70;99.90;;;;;;5094016;28;20267;-80
2021/09/28 02:44:40;;;;;;;7.63;1.57;;;11.70;99.90;;;;;;5093992;28;20716;-82
2021/09/28 02:47:09;;;;;;;7.47;1.73;;;11.70;99.90;;;;;;5094223;28;20213;-81
2021/09/28 02:49:36;;;;;;;5.10;1.53;;;11.70;99.90;;;;;;5094082;28;20211;-81
2021/09/28 02:52:04;;;;;;;8.17;1.50;;;11.70;99.90;;;;;;5093199;28;20325;-82
2021/09/28 02:54:31;;;;;;;15.17;2.17;;;11.70;99.90;;;;;;5093490;28;20647;-79
2021/09/28 02:56:58;;;;;;;9.57;2.20;;;11.60;99.90;;;;;;5094055;28;20314;-82
2021/09/28 02:59:24;;;;;;;7.00;1.50;;;11.60;99.90;;;;;;5093953;28;20203;-81
2021/09/28 03:01:52;;;;;;;10.23;2.10;;;11.60;99.90;;;;;;5093888;28;20290;-79
2021/09/28 03:04:20;;;;;;;10.63;1.53;;;11.60;99.90;;;;;;5093600;28;20312;-81
2021/09/28 03:06:47;;;;;;;9.40;1.70;;;11.70;99.90;;;;;;5079562;28;20294;-80
2021/09/28 03:09:14;;;;;;;11.80;2.23;;;11.60;99.90;;;;;;5093970;28;20282;-81
2021/09/28 03:11:41;;;;;;;11.20;1.93;;;11.50;99.90;;;;;;5093432;28;20316;-79
2021/09/28 03:14:08;;;;;;;12.23;1.93;;;11.50;99.90;;;;;;5094067;28;20715;-82
2021/09/28 03:16:35;;;;;;;6.87;1.87;;;11.50;99.90;;;;;;5094234;28;20227;-80
2021/09/28 03:19:02;;;;;;;4.10;1.83;;;11.60;99.90;;;;;;5093357;28;20633;-82
2021/09/28 03:21:30;;;;;;;11.47;2.00;;;11.60;99.90;;;;;;5093600;28;20233;-82
2021/09/28 03:23:57;;;;;;;4.40;1.70;;;11.60;99.90;;;;;;5093330;28;20283;-80
2021/09/28 03:26:25;;;;;;;6.27;2.10;;;11.60;99.90;;;;;;5093366;28;20234;-83
2021/09/28 03:28:53;;;;;;;8.07;2.03;;;11.60;99.90;;;;;;5093490;28;20214;-82
2021/09/28 03:31:20;;;;;;;12.47;2.10;;;11.50;99.90;;;;;;5093805;28;20711;-80
2021/09/28 03:33:47;;;;;;;11.93;2.40;;;11.50;99.90;;;;;;5093169;28;20209;-84
2021/09/28 03:36:14;;;;;;;12.83;2.07;;;11.50;99.90;;;;;;5093364;28;20606;-83
2021/09/28 03:38:42;;;;;;;12.00;2.20;;;11.50;99.90;;;;;;5093577;28;20195;-81
2021/09/28 03:41:09;;;;;;;8.23;2.10;;;11.50;99.90;;;;;;5093071;28;20202;-82
2021/09/28 03:43:36;;;;;;;9.30;2.20;;;11.40;99.90;;;;;;5093335;28;20724;-81
2021/09/28 03:46:03;;;;;;;12.87;2.97;;;11.40;99.90;;;;;;5093152;28;20289;-80
2021/09/28 03:48:31;;;;;;;8.70;2.90;;;11.40;99.90;;;;;;5083045;28;20235;-82
2021/09/28 03:50:58;;;;;;;12.50;2.80;;;11.40;99.90;;;;;;5090051;28;20255;-83
2021/09/28 03:53:25;;;;;;;11.13;2.60;;;11.40;99.90;;;;;;5093188;28;20225;-82
2021/09/28 03:55:53;;;;;;;9.93;2.80;;;11.50;99.90;;;;;;5092961;28;20340;-79
2021/09/28 03:58:20;;;;;;;11.57;2.97;;;11.50;99.90;;;;;;5093235;28;20255;-81
2021/09/28 04:00:47;;;;;;;10.20;3.03;;;11.40;99.90;;;;;;5093352;28;20245;-81
2021/09/28 04:03:14;;;;;;;10.57;2.83;;;11.40;99.90;;;;;;5095256;28;20228;-81
2021/09/28 04:05:41;;;;;;;15.13;3.33;;;11.40;99.90;;;;;;5097449;28;20699;-83
2021/09/28 04:08:08;;;;;;;8.10;3.03;;;11.40;99.90;;;;;;5097137;28;20651;-78
2021/09/28 04:10:37;;;;;;;11.10;3.37;;;11.40;99.90;;;;;;5083467;28;20202;-82
2021/09/28 04:13:06;;;;;;;16.77;3.97;;;11.40;99.90;;;;;;5097864;28;20268;-82
2021/09/28 04:15:39;;;;;;;10.77;3.47;;;11.40;99.90;;;;;;5097201;28;20258;-81
2021/09/28 04:18:06;;;;;;;10.80;3.20;;;11.40;99.90;;;;;;5097175;28;20197;-79
2021/09/28 04:20:34;;;;;;;13.60;4.30;;;11.40;99.90;;;;;;5096821;28;20253;-81
2021/09/28 04:23:03;;;;;;;15.90;3.87;;;11.30;99.90;;;;;;5096774;28;20224;-82
2021/09/28 04:25:31;;;;;;;12.87;4.20;;;11.30;99.90;;;;;;5094017;28;20284;-81
2021/09/28 04:27:58;;;;;;;13.40;4.07;;;11.30;99.90;;;;;;5086380;28;20293;-81
2021/09/28 04:30:27;;;;;;;14.00;4.10;;;11.40;99.90;;;;;;5096803;28;20296;-81
2021/09/28 04:32:55;;;;;;;14.30;3.87;;;11.40;99.90;;;;;;5096674;28;20324;-81
2021/09/28 04:35:22;;;;;;;12.80;4.07;;;11.40;99.90;;;;;;5096610;28;20205;-81
2021/09/28 04:37:49;;;;;;;14.57;4.57;;;11.30;99.90;;;;;;5096815;28;20206;-81
2021/09/28 04:40:16;;;;;;;13.07;4.20;;;11.30;99.90;;;;;;5096535;28;20266;-81
2021/09/28 04:42:44;;;;;;;14.73;4.43;;;11.40;99.90;;;;;;5096723;28;20244;-79
2021/09/28 04:45:11;;;;;;;16.03;5.47;;;11.30;99.90;;;;;;5096295;28;20229;-81
2021/09/28 04:47:40;;;;;;;14.03;5.10;;;11.30;99.90;;;;;;5096271;28;20230;-80
2021/09/28 04:50:08;;;;;;;19.23;4.93;;;11.30;99.90;;;;;;5096456;28;20747;-80
2021/09/28 04:52:36;;;;;;;14.30;4.90;;;11.30;99.90;;;;;;5096195;28;20252;-80
2021/09/28 04:55:03;;;;;;;20.60;5.80;;;11.20;99.90;;;;;;5096535;28;20251;-83
2021/09/28 04:57:30;;;;;;;19.97;5.63;;;11.30;99.90;;;;;;5096497;28;20195;-82
2021/09/28 04:59:57;;;;;;;15.17;5.40;;;11.30;99.90;;;;;;5096948;28;20225;-81
2021/09/28 05:02:24;;;;;;;13.10;5.17;;;11.30;99.90;;;;;;5096309;28;20207;-80
2021/09/28 05:04:53;;;;;;;16.60;5.07;;;11.20;99.90;;;;;;5093073;28;20238;-81
2021/09/28 05:07:20;;;;;;;12.37;5.37;;;11.20;99.90;;;;;;5087782;28;20260;-80
2021/09/28 05:09:47;;;;;;;20.27;5.73;;;11.20;99.90;;;;;;5096731;28;20236;-83
2021/09/28 05:12:14;;;;;;;11.17;5.37;;;11.20;99.90;;;;;;5090459;28;20289;-78
2021/09/28 05:14:41;;;;;;;16.30;5.50;;;11.20;99.90;;;;;;5094302;28;20201;-79
2021/09/28 05:17:08;;;;;;;18.73;5.43;;;11.20;99.90;;;;;;5090813;28;20632;-79
2021/09/28 05:19:35;;;;;;;20.87;5.63;;;11.20;99.90;;;;;;5090109;28;20285;-80
2021/09/28 05:22:04;;;;;;;14.40;5.13;;;11.10;99.90;;;;;;5093755;28;20248;-82
2021/09/28 05:24:31;;;;;;;16.43;5.03;;;11.10;99.90;;;;;;5092166;28;20214;-82
2021/09/28 05:26:58;;;;;;;18.90;5.33;;;11.20;99.90;;;;;;5092248;28;20722;-82
2021/09/28 05:29:25;;;;;;;17.10;5.23;;;11.20;99.90;;;;;;5087592;28;20207;-79
2021/09/28 05:31:51;;;;;;;12.27;5.47;;;11.20;99.90;;;;;;5088131;28;20230;-79
2021/09/28 05:34:18;;;;;;;17.00;5.17;;;11.20;99.90;;;;;;5091680;28;20207;-79
2021/09/28 05:36:45;;;;;;;17.10;5.87;;;11.20;99.90;;;;;;5087919;28;20635;-79
2021/09/28 05:39:14;;;;;;;14.87;5.33;;;11.20;99.90;;;;;;5092262;28;20205;-81
2021/09/28 05:41:41;;;;;;;15.40;6.17;;;11.20;99.90;;;;;;5092161;28;20201;-82
2021/09/28 05:44:08;;;;;;;11.77;5.30;;;11.20;99.90;;;;;;5090095;28;20284;-85
2021/09/28 05:46:35;;;;;;;19.53;5.50;;;11.10;99.90;;;;;;5091744;28;20244;-80
2021/09/28 05:49:01;;;;;;;16.33;5.77;;;11.10;99.90;;;;;;5083281;28;20270;-80
2021/09/28 05:51:29;;;;;;;24.50;5.57;;;11.10;99.90;;;;;;5073537;28;20198;-79
2021/09/28 05:53:59;;;;;;;15.73;5.67;;;11.10;99.90;;;;;;5073640;28;20622;-82
2021/09/28 05:56:28;;;;;;;15.73;5.07;;;11.20;99.90;;;;;;5080853;28;20658;-79
2021/09/28 05:58:54;;;;;;;16.03;5.47;;;11.20;99.90;;;;;;5094267;28;20365;-83
2021/09/28 06:01:22;;;;;;;20.93;5.50;;;11.30;99.90;;;;;;5094667;28;20234;-82
2021/09/28 06:03:48;;;;;;;15.00;4.97;;;11.30;99.90;;;;;;5095117;28;20225;-79
2021/09/28 06:06:16;;;;;;;18.87;4.90;;;11.40;99.90;;;;;;5094091;28;20280;-83
2021/09/28 06:08:42;;;;;;;13.33;5.90;;;11.50;99.90;;;;;;5094495;28;20728;-82
2021/09/28 06:11:09;;;;;;;18.27;6.00;;;11.50;99.90;;;;;;5076866;28;20203;-82
2021/09/28 06:13:38;;;;;;;17.83;5.07;;;11.60;99.90;;;;;;5073910;28;20311;-80
2021/09/28 06:16:05;;;;;;;16.30;5.03;;;11.70;99.90;;;;;;5076375;28;20741;-81
2021/09/28 06:18:32;;;;;;;10.77;4.30;;;11.80;99.90;;;;;;5094421;28;20281;-82
2021/09/28 06:20:59;;;;;;;14.80;4.67;;;11.90;99.90;;;;;;5094274;28;20222;-79
2021/09/28 06:23:26;;;;;;;18.30;5.17;;;11.90;99.90;;;;;;5094262;28;20206;-79
2021/09/28 06:25:53;;;;;;;17.90;4.63;;;11.90;99.90;;;;;;5093514;28;20238;-79
2021/09/28 06:28:20;;;;;;;17.00;5.10;;;12.00;99.90;;;;;;5093150;28;20279;-79
2021/09/28 06:30:48;;;;;;;17.63;4.70;;;12.00;99.90;;;;;;5094699;28;20191;-79
2021/09/28 06:33:15;;;;;;;14.57;4.70;;;12.10;99.90;;;;;;5094371;28;20244;-79
2021/09/28 06:35:42;;;;;;;14.70;4.83;;;12.10;99.90;;;;;;5094583;28;20305;-80
2021/09/28 06:38:09;;;;;;;13.23;4.70;;;12.20;99.90;;;;;;5094945;28;20205;-79
2021/09/28 06:40:36;;;;;;;16.20;4.70;;;12.30;99.90;;;;;;5094362;28;20571;-79
2021/09/28 06:43:03;;;;;;;16.20;4.10;;;12.40;99.90;;;;;;5094329;28;20195;-79
2021/09/28 06:45:30;;;;;;;21.83;4.83;;;12.50;99.90;;;;;;5093731;28;20286;-79
2021/09/28 06:47:59;;;;;;;18.57;4.47;;;12.50;99.90;;;;;;5094066;28;20194;-82
2021/09/28 06:50:26;;;;;;;12.90;4.73;;;12.60;99.90;;;;;;5094160;28;20285;-81
2021/09/28 06:52:54;;;;;;;13.67;5.03;;;12.70;99.90;;;;;;5094119;28;20268;-78
2021/09/28 06:55:21;;;;;;;15.60;5.10;;;12.80;99.90;;;;;;5093508;28;20249;-79
2021/09/28 06:57:48;;;;;;;12.00;4.90;;;12.80;99.90;;;;;;5094070;28;20862;-78
2021/09/28 07:00:15;;;;;;;16.83;5.50;;;12.80;99.90;;;;;;5094160;28;20222;-81
2021/09/28 07:02:42;;;;;;;14.37;5.10;;;12.80;99.90;;;;;;5094110;28;20230;-79
2021/09/28 07:05:14;;;;;;;12.40;5.90;;;12.90;99.90;;;;;;5093818;28;20234;-79
2021/09/28 07:07:41;;;;;;;17.27;5.97;;;13.00;99.90;;;;;;5091415;28;20206;-79
2021/09/28 07:10:09;;;;;;;23.73;7.40;;;13.00;99.90;;;;;;5094438;28;20287;-79
2021/09/28 07:12:36;;;;;;;19.10;6.33;;;13.20;99.90;;;;;;5093314;28;20563;-80
2021/09/28 07:15:05;;;;;;;14.10;5.93;;;13.20;99.90;;;;;;5094119;28;20285;-79
2021/09/28 07:17:32;;;;;;;18.20;6.43;;;13.30;99.90;;;;;;5093398;28;20260;-79
2021/09/28 07:20:01;;;;;;;19.23;6.47;;;13.20;99.90;;;;;;5093611;28;20282;-80
2021/09/28 07:22:31;;;;;;;14.83;5.60;;;13.30;99.90;;;;;;5093820;28;20199;-85
2021/09/28 07:24:58;;;;;;;20.67;7.03;;;13.30;99.90;;;;;;5093892;28;20249;-84
2021/09/28 07:27:25;;;;;;;19.80;6.40;;;13.40;99.90;;;;;;5093934;28;20206;-84
2021/09/28 07:29:52;;;;;;;15.37;6.07;;;13.40;99.90;;;;;;5093474;28;20195;-79
2021/09/28 07:32:21;;;;;;;20.10;6.17;;;13.50;99.90;;;;;;5093798;28;20195;-81
2021/09/28 07:34:48;;;;;;;14.20;5.60;;;13.60;99.90;;;;;;5093250;28;20226;-80
2021/09/28 07:37:15;;;;;;;14.67;5.47;;;13.70;99.90;;;;;;5092986;28;20292;-80
2021/09/28 07:39:43;;;;;;;12.30;5.67;;;13.70;99.90;;;;;;5093193;28;20244;-80
2021/09/28 07:42:10;;;;;;;23.43;5.60;;;13.70;99.90;;;;;;5093218;28;20282;-82
2021/09/28 07:44:37;;;;;;;21.43;5.63;;;13.80;99.90;;;;;;5093626;28;20641;-80
2021/09/28 07:47:04;;;;;;;15.93;5.10;;;13.90;99.90;;;;;;5093240;28;20710;-80
2021/09/28 07:49:32;;;;;;;15.53;5.90;;;13.90;99.90;;;;;;5090419;28;20706;-82
2021/09/28 07:51:59;;;;;;;11.87;4.93;;;14.00;99.90;;;;;;5092263;28;20233;-79
2021/09/28 07:54:26;;;;;;;12.03;5.43;;;14.10;99.90;;;;;;5093849;28;20283;-79
2021/09/28 07:56:55;;;;;;;16.93;5.60;;;14.20;99.90;;;;;;5093595;28;20290;-78
2021/09/28 07:59:22;;;;;;;12.90;5.00;;;14.30;99.90;;;;;;5093934;28;20199;-82
2021/09/28 08:01:49;;;;;;;20.90;5.47;;;14.30;99.90;;;;;;5093397;28;20241;-83
2021/09/28 08:04:19;;;;;;;13.47;4.80;;;14.30;99.90;;;;;;5093274;28;20271;-79
2021/09/28 08:06:46;;;;;;;16.40;4.40;;;14.40;99.90;;;;;;5093246;28;20289;-80
2021/09/28 08:09:14;;;;;;;10.37;4.20;;;14.40;99.90;;;;;;5093767;28;20203;-80
2021/09/28 08:11:41;;;;;;;13.60;4.73;;;14.60;99.90;;;;;;5094539;28;20252;-80
2021/09/28 08:14:09;;;;;;;9.67;3.73;;;14.70;99.90;;;;;;5093336;28;20268;-81
2021/09/28 08:16:36;;;;;;;13.43;4.13;;;14.70;99.90;;;;;;5092992;28;20286;-78
2021/09/28 08:19:04;;;;;;;20.60;4.60;;;14.70;99.90;;;;;;5092784;28;20700;-82
2021/09/28 08:21:31;;;;;;;12.13;4.00;;;14.80;99.90;;;;;;5093316;28;20290;-79
2021/09/28 08:24:00;;;;;;;13.67;3.63;;;14.80;99.90;;;;;;5092566;28;20621;-80
2021/09/28 08:29:13;;;;;;;11.83;3.80;;;15.00;99.90;;;;;;5093207;28;20280;-81
2021/09/28 08:31:41;;;;;;;12.67;4.03;;;15.00;99.90;;;;;;5093212;28;20203;-78
2021/09/28 08:34:10;;;;;;;18.43;4.13;;;15.00;99.90;;;;;;5092533;28;20314;-79
2021/09/28 08:36:37;;;;;;;9.03;3.37;;;15.00;99.90;;;;;;5092698;28;20227;-79
2021/09/28 08:39:05;;;;;;;6.50;2.80;;;15.10;99.90;;;;;;5092913;28;20240;-80
2021/09/28 08:41:32;;;;;;;10.47;3.37;;;15.10;99.90;;;;;;5093204;28;20211;-80
2021/09/28 08:43:59;;;;;;;12.17;3.27;;;15.20;99.90;;;;;;5093133;28;20191;-78
2021/09/28 08:46:27;;;;;;;12.93;3.23;;;15.30;99.90;;;;;;5092772;28;20202;-80
2021/09/28 08:48:54;;;;;;;12.53;3.17;;;15.30;99.90;;;;;;5093439;28;20225;-80
2021/09/28 08:51:21;;;;;;;12.67;3.80;;;15.40;99.90;;;;;;5096776;28;20231;-83
2021/09/28 08:53:51;;;;;;;14.03;2.93;;;15.40;99.90;;;;;;5096715;28;20309;-83
2021/09/28 08:56:18;;;;;;;17.27;3.10;;;15.60;99.90;;;;;;5097026;28;20298;-79
2021/09/28 08:58:57;;;;;;;14.13;3.10;;;15.70;99.90;;;;;;5096785;28;20248;-80
2021/09/28 09:01:25;;;;;;;11.63;3.27;;;15.70;99.90;;;;;;5096390;28;20241;-79
2021/09/28 09:03:54;;;;;;;14.37;3.30;;;15.80;99.90;;;;;;5097095;28;20252;-80
2021/09/28 09:06:33;;;;;;;15.63;3.00;;;15.90;99.90;;;;;;5096787;28;20260;-83
2021/09/28 09:09:02;;;;;;;11.37;3.40;;;16.00;99.90;;;;;;5096315;28;20187;-82
2021/09/28 09:11:36;;;;;;;8.13;2.77;;;16.00;99.90;;;;;;5096401;28;20195;-80
2021/09/28 09:14:14;;;;;;;9.93;2.73;;;16.00;99.90;;;;;;5095672;28;20323;-79
2021/09/28 09:16:42;;;;;;;17.27;3.13;;;16.10;99.90;;;;;;5096444;28;20481;-80
2021/09/28 09:19:18;;;;;;;9.20;3.20;;;16.10;99.90;;;;;;5101981;28;20209;-83
2021/09/28 09:21:48;;;;;;;20.03;3.40;;;16.20;99.90;;;;;;5113541;28;20281;-81
2021/09/28 09:24:43;;;;;;;15.83;3.13;;;16.30;99.90;;;;;;5110603;28;20198;-80
2021/09/28 09:27:10;;;;;;;9.53;3.17;;;16.30;99.90;;;;;;5102212;28;20225;-78
2021/09/28 09:29:37;;;;;;;9.37;2.70;;;16.40;99.90;;;;;;5106142;28;20215;-79
2021/09/28 09:32:04;;;;;;;14.87;3.27;;;16.40;99.90;;;;;;5109920;28;20249;-80
2021/09/28 09:34:33;;;;;;;10.47;2.80;;;16.50;99.90;;;;;;5102597;28;20317;-80
2021/09/28 09:37:03;;;;;;;9.70;2.73;;;16.50;99.90;;;;;;5103938;28;20222;-80
2021/09/28 09:39:45;;;;;;;8.87;2.63;;;16.50;99.90;;;;;;5102294;28;20222;-81
2021/09/28 09:42:13;;;;;;;8.20;2.40;;;16.60;99.90;;;;;;5104906;28;20194;-79
2021/09/28 09:44:42;;;;;;;9.70;3.00;;;16.70;99.90;;;;;;5105763;28;20635;-80
2021/09/28 09:47:26;;;;;;;11.20;3.00;;;16.90;99.90;;;;;;5113126;28;20699;-81
2021/09/28 09:50:12;;;;;;;9.37;2.63;;;17.20;99.90;;;;;;5098880;28;20583;-80
2021/09/28 09:53:07;;;;;;;9.37;2.17;;;17.40;99.90;;;;;;5106190;28;20276;-80
2021/09/28 09:55:38;;;;;;;13.43;2.80;;;17.60;99.90;;;;;;5104592;28;20264;-79
2021/09/28 09:58:06;;;;;;;9.50;2.10;;;17.80;99.90;;;;;;5102168;28;20202;-82
2021/09/28 10:00:33;;;;;;;10.90;2.10;;;17.80;99.90;;;;;;5097977;28;20285;-83
2021/09/28 10:03:00;;;;;;;7.27;2.03;;;17.80;99.90;;;;;;5103401;28;20615;-80
2021/09/28 10:05:29;;;;;;;8.93;1.93;;;17.80;99.90;;;;;;5109794;28;20561;-81
2021/09/28 10:07:57;;;;;;;5.93;1.83;;;17.90;99.90;;;;;;5103942;28;20551;-80
2021/09/28 10:10:24;;;;;;;7.83;1.93;;;18.90;99.90;;;;;;5096957;28;20659;-80
2021/09/28 10:12:51;;;;;;;5.77;1.93;;;20.30;99.90;;;;;;5096043;28;20222;-80
2021/09/28 10:15:19;;;;;;;5.40;1.57;;;21.20;99.90;;;;;;5096304;28;20219;-80
2021/09/28 10:17:47;;;;;;;7.13;1.87;;;22.10;99.90;;;;;;5096404;28;20545;-80
2021/09/28 10:20:31;;;;;;;5.93;1.60;;;22.50;99.90;;;;;;5097674;28;20223;-80
2021/09/28 10:23:01;;;;;;;8.57;1.87;;;22.90;99.90;;;;;;5095867;28;20210;-81
2021/09/28 10:25:41;;;;;;;4.27;1.60;;;23.30;99.90;;;;;;5097024;28;20203;-81
2021/09/28 10:28:31;;;;;;;8.80;1.70;;;23.40;99.90;;;;;;5108327;28;20710;-79
2021/09/28 10:30:58;;;;;;;7.30;1.93;;;23.80;99.90;;;;;;5114132;28;20203;-79
2021/09/28 10:33:34;;;;;;;7.03;2.10;;;24.10;99.90;;;;;;5115986;28;20175;-79
2021/09/28 10:36:05;;;;;;;9.77;2.58;;;23.70;99.90;;;;;;5116075;28;20182;-80
2021/09/28 10:38:58;;;;;;;9.55;1.92;;;23.50;99.90;;;;;;5107680;28;21125;-79
2021/09/28 10:41:44;;;;;;;7.80;1.95;;;23.40;99.90;;;;;;5094221;28;20203;-81
2021/09/28 10:44:51;;;;;;;8.50;1.85;;;23.00;99.90;;;;;;5100282;28;20206;-83
2021/09/28 10:47:48;;;;;;;6.87;1.30;;;23.00;99.90;;;;;;5106721;28;20237;-82
2021/09/28 10:50:27;;;;;;;6.90;1.55;;;23.40;99.90;;;;;;5095416;28;20209;-84
2021/09/28 10:52:57;;;;;;;12.40;1.80;;;23.30;99.90;;;;;;5094551;28;20209;-80
2021/09/28 10:55:55;;;;;;;7.28;1.65;;;22.90;99.90;;;;;;5096565;28;20253;-81
2021/09/28 10:58:23;;;;;;;6.95;1.40;;;22.60;99.90;;;;;;5104371;28;20209;-77
2021/09/28 11:01:09;;;;;;;7.15;1.80;;;22.60;99.90;;;;;;5104649;28;20197;-80
2021/09/28 11:04:01;;;;;;;5.07;1.48;;;22.40;99.90;;;;;;5102532;28;20564;-81
2021/09/28 11:06:48;;;;;;;6.05;1.67;;;22.30;99.90;;;;;;5100568;28;20271;-80
2021/09/28 11:09:18;;;;;;;5.90;1.70;;;22.80;99.90;;;;;;5099689;28;20201;-80
2021/09/28 11:11:50;;;;;;;6.57;1.48;;;23.30;99.90;;;;;;5102075;28;20226;-80
2021/09/28 11:14:17;;;;;;;9.35;1.65;;;22.90;99.90;;;;;;5102801;28;20249;-80
2021/09/28 11:16:50;;;;;;;6.88;1.67;;;22.30;99.90;;;;;;5104077;28;20230;-81
2021/09/28 11:19:17;;;;;;;4.05;1.50;;;22.20;99.90;;;;;;5098500;28;20740;-80
2021/09/28 11:21:46;;;;;;;6.03;1.17;;;21.60;99.90;;;;;;5093615;28;20722;-80
2021/09/28 11:24:18;;;;;;;6.45;1.33;;;21.70;99.90;;;;;;5097057;28;20569;-84
2021/09/28 11:26:46;;;;;;;6.32;1.65;;;22.20;99.90;;;;;;5100409;28;20244;-77
2021/09/28 11:29:21;;;;;;;6.05;1.50;;;23.50;99.90;;;;;;5100288;28;20195;-83
2021/09/28 11:31:48;;;;;;;12.52;2.03;;;24.00;99.90;;;;;;5104286;28;20197;-81
2021/09/28 11:34:25;;;;;;;8.93;1.40;;;24.60;99.90;;;;;;5102336;28;20252;-81
2021/09/28 11:36:54;;;;;;;8.50;1.70;;;24.50;99.90;;;;;;5101823;28;20205;-83
2021/09/28 11:39:21;;;;;;;5.93;1.60;;;24.60;99.90;;;;;;5098945;28;20214;-82
2021/09/28 11:41:50;;;;;;;6.75;1.38;;;24.30;99.90;;;;;;5090474;28;20253;-83
2021/09/28 11:44:17;;;;;;;5.47;1.33;;;24.50;99.90;;;;;;5089711;28;20321;-80
2021/09/28 11:46:44;;;;;;;7.68;1.38;;;24.50;99.90;;;;;;5091465;28;20218;-80
2021/09/28 11:49:11;;;;;;;6.63;1.63;;;24.30;99.90;;;;;;5088460;28;20199;-81
2021/09/28 11:51:41;;;;;;;8.75;1.65;;;24.50;99.90;;;;;;5093010;28;20198;-81
2021/09/28 11:54:10;;;;;;;10.90;1.42;;;24.40;99.90;;;;;;5092403;28;20289;-81
2021/09/28 11:56:40;;;;;;;5.78;1.13;;;23.90;99.90;;;;;;5092718;28;20717;-82
2021/09/28 11:59:12;;;;;;;4.60;1.23;;;22.80;99.90;;;;;;5093038;28;20215;-81
2021/09/28 12:01:41;;;;;;;7.75;1.38;;;22.20;99.90;;;;;;5092880;28;20293;-81
2021/09/28 12:04:14;;;;;;;3.65;1.23;;;21.60;99.90;;;;;;5092729;28;20199;-81
2021/09/28 12:07:00;;;;;;;7.07;1.00;;;21.50;99.90;;;;;;5092828;28;20206;-81
2021/09/28 12:09:28;;;;;;;4.63;1.17;;;21.30;99.90;;;;;;5088025;28;20231;-82
2021/09/28 12:11:59;;;;;;;5.43;1.20;;;21.30;99.90;;;;;;5093146;28;20606;-82
2021/09/28 12:14:36;;;;;;;5.20;0.90;;;21.30;99.90;;;;;;5092062;28;20229;-83
2021/09/28 12:17:11;;;;;;;5.50;1.60;;;21.50;99.90;;;;;;5079346;28;20705;-81
2021/09/28 12:19:39;;;;;;;4.27;1.20;;;21.60;99.90;;;;;;5079997;28;20203;-80
2021/09/28 12:22:06;;;;;;;3.63;1.00;;;21.50;99.90;;;;;;5079274;28;20207;-80
2021/09/28 12:24:45;;;;;;;5.80;1.23;;;21.30;99.90;;;;;;5092004;28;20252;-79
2021/09/28 12:27:12;;;;;;;6.30;1.20;;;21.20;99.90;;;;;;5081459;28;20199;-79
2021/09/28 12:29:43;;;;;;;7.23;1.27;;;20.90;99.90;;;;;;5081198;28;20212;-81
2021/09/28 12:32:18;;;;;;;7.40;1.10;;;20.90;99.90;;;;;;5087156;28;20202;-80
2021/09/28 12:34:56;;;;;;;4.23;1.00;;;21.00;99.90;;;;;;5093078;28;20222;-81
2021/09/28 12:37:24;;;;;;;3.93;1.13;;;21.00;99.90;;;;;;5094687;28;20226;-80
2021/09/28 12:40:03;;;;;;;5.30;1.70;;;20.80;99.90;;;;;;5095679;28;20285;-80
2021/09/28 12:42:31;;;;;;;5.73;1.10;;;20.80;99.90;;;;;;5082281;28;20592;-80
2021/09/28 12:45:02;;;;;;;4.93;1.13;;;20.90;99.90;;;;;;5094494;28;20218;-80
2021/09/28 12:47:32;;;;;;;4.07;1.33;;;21.10;99.90;;;;;;5094872;28;20335;-81
2021/09/28 12:50:15;;;;;;;3.37;1.20;;;21.30;99.90;;;;;;5095510;28;20653;-81
2021/09/28 12:52:42;;;;;;;4.63;1.20;;;21.50;99.90;;;;;;5092585;28;20203;-81
2021/09/28 12:55:09;;;;;;;6.97;1.30;;;21.90;99.90;;;;;;5093326;28;20222;-80